sensor_id;sensor_type;location;lat;lon;timestamp;P1;durP1;ratioP1;P2;durP2;ratioP2
1380;SDS011;684;48.342;10.096;2023-07-02T00:01:50;6.23;;;3.10;;
1380;SDS011;684;48.342;10.096;2023-07-02T00:04:16;6.47;;;3.20;;
1380;SDS011;684;48.342;10.096;2023-07-02T00:06:44;5.77;;;2.77;;
1380;SDS011;684;48.342;10.096;2023-07-02T00:09:12;5.70;;;2.60;;
1380;SDS011;684;48.342;10.096;2023-07-02T00:11:40;5.77;;;2.30;;
1380;SDS011;684;48.342;10.096;2023-07-02T00:14:10;4.57;;;1.90;;
1380;SDS011;684;48.342;10.096;2023-07-02T00:16:37;5.93;;;2.40;;
1380;SDS011;684;48.342;10.096;2023-07-02T00:19:05;5.90;;;2.20;;
1380;SDS011;684;48.342;10.096;2023-07-02T00:21:32;5.53;;;2.10;;
1380;SDS011;684;48.342;10.096;2023-07-02T00:23:58;6.07;;;2.10;;
1380;SDS011;684;48.342;10.096;2023-07-02T00:26:26;5.37;;;1.90;;
1380;SDS011;684;48.342;10.096;2023-07-02T00:28:54;4.77;;;1.67;;
1380;SDS011;684;48.342;10.096;2023-07-02T00:31:23;4.87;;;2.10;;
1380;SDS011;684;48.342;10.096;2023-07-02T00:33:50;6.03;;;1.53;;
1380;SDS011;684;48.342;10.096;2023-07-02T00:36:17;4.93;;;1.50;;
1380;SDS011;684;48.342;10.096;2023-07-02T00:38:44;4.70;;;1.90;;
1380;SDS011;684;48.342;10.096;2023-07-02T00:41:12;5.73;;;1.90;;
1380;SDS011;684;48.342;10.096;2023-07-02T00:43:38;4.40;;;1.87;;
1380;SDS011;684;48.342;10.096;2023-07-02T00:46:08;4.90;;;1.80;;
1380;SDS011;684;48.342;10.096;2023-07-02T00:48:39;5.10;;;2.07;;
1380;SDS011;684;48.342;10.096;2023-07-02T00:51:06;4.80;;;1.77;;
1380;SDS011;684;48.342;10.096;2023-07-02T00:53:33;5.53;;;2.00;;
1380;SDS011;684;48.342;10.096;2023-07-02T00:56:00;5.17;;;1.70;;
1380;SDS011;684;48.342;10.096;2023-07-02T00:58:27;4.70;;;1.80;;
1380;SDS011;684;48.342;10.096;2023-07-02T01:00:54;4.60;;;1.87;;
1380;SDS011;684;48.342;10.096;2023-07-02T01:03:22;4.47;;;1.63;;
1380;SDS011;684;48.342;10.096;2023-07-02T01:05:50;5.50;;;2.00;;
1380;SDS011;684;48.342;10.096;2023-07-02T01:08:17;5.43;;;1.80;;
1380;SDS011;684;48.342;10.096;2023-07-02T01:10:43;5.50;;;2.07;;
1380;SDS011;684;48.342;10.096;2023-07-02T01:13:12;4.60;;;1.70;;
1380;SDS011;684;48.342;10.096;2023-07-02T01:15:41;6.30;;;2.13;;
1380;SDS011;684;48.342;10.096;2023-07-02T01:18:10;12.80;;;2.97;;
1380;SDS011;684;48.342;10.096;2023-07-02T01:20:41;10.20;;;3.00;;
1380;SDS011;684;48.342;10.096;2023-07-02T01:23:08;7.03;;;2.67;;
1380;SDS011;684;48.342;10.096;2023-07-02T01:25:35;6.73;;;2.67;;
1380;SDS011;684;48.342;10.096;2023-07-02T01:28:02;5.60;;;2.80;;
1380;SDS011;684;48.342;10.096;2023-07-02T01:30:29;6.30;;;2.47;;
1380;SDS011;684;48.342;10.096;2023-07-02T01:32:56;6.57;;;2.50;;
1380;SDS011;684;48.342;10.096;2023-07-02T01:35:23;6.20;;;2.83;;
1380;SDS011;684;48.342;10.096;2023-07-02T01:37:51;4.97;;;2.67;;
1380;SDS011;684;48.342;10.096;2023-07-02T01:40:18;6.03;;;3.20;;
1380;SDS011;684;48.342;10.096;2023-07-02T01:42:45;7.50;;;3.30;;
1380;SDS011;684;48.342;10.096;2023-07-02T01:45:12;7.00;;;3.00;;
1380;SDS011;684;48.342;10.096;2023-07-02T01:47:38;10.43;;;3.70;;
1380;SDS011;684;48.342;10.096;2023-07-02T01:50:05;5.93;;;3.17;;
1380;SDS011;684;48.342;10.096;2023-07-02T01:52:33;7.00;;;3.10;;
1380;SDS011;684;48.342;10.096;2023-07-02T01:55:01;6.50;;;3.30;;
1380;SDS011;684;48.342;10.096;2023-07-02T01:57:28;8.90;;;4.17;;
1380;SDS011;684;48.342;10.096;2023-07-02T01:59:56;7.03;;;3.20;;
1380;SDS011;684;48.342;10.096;2023-07-02T02:02:23;9.63;;;3.33;;
1380;SDS011;684;48.342;10.096;2023-07-02T02:04:49;10.00;;;3.87;;
1380;SDS011;684;48.342;10.096;2023-07-02T02:07:16;8.77;;;3.67;;
1380;SDS011;684;48.342;10.096;2023-07-02T02:09:43;7.00;;;3.80;;
1380;SDS011;684;48.342;10.096;2023-07-02T02:12:11;7.27;;;3.53;;
1380;SDS011;684;48.342;10.096;2023-07-02T02:14:39;6.60;;;3.50;;
1380;SDS011;684;48.342;10.096;2023-07-02T02:17:06;7.70;;;3.80;;
1380;SDS011;684;48.342;10.096;2023-07-02T02:19:32;7.50;;;3.70;;
1380;SDS011;684;48.342;10.096;2023-07-02T02:21:59;8.83;;;3.77;;
1380;SDS011;684;48.342;10.096;2023-07-02T02:24:26;8.27;;;3.60;;
1380;SDS011;684;48.342;10.096;2023-07-02T02:26:52;9.60;;;3.63;;
1380;SDS011;684;48.342;10.096;2023-07-02T02:29:20;9.13;;;3.80;;
1380;SDS011;684;48.342;10.096;2023-07-02T02:31:47;7.93;;;3.70;;
1380;SDS011;684;48.342;10.096;2023-07-02T02:34:14;8.50;;;3.50;;
1380;SDS011;684;48.342;10.096;2023-07-02T02:36:40;6.57;;;3.67;;
1380;SDS011;684;48.342;10.096;2023-07-02T02:39:07;8.17;;;4.40;;
1380;SDS011;684;48.342;10.096;2023-07-02T02:41:34;6.17;;;3.43;;
1380;SDS011;684;48.342;10.096;2023-07-02T02:44:00;6.80;;;3.93;;
1380;SDS011;684;48.342;10.096;2023-07-02T02:46:28;8.30;;;3.83;;
1380;SDS011;684;48.342;10.096;2023-07-02T02:48:55;6.87;;;3.97;;
1380;SDS011;684;48.342;10.096;2023-07-02T02:51:22;6.63;;;3.60;;
1380;SDS011;684;48.342;10.096;2023-07-02T02:53:49;10.67;;;3.93;;
1380;SDS011;684;48.342;10.096;2023-07-02T02:56:15;7.03;;;3.73;;
1380;SDS011;684;48.342;10.096;2023-07-02T02:58:43;9.20;;;4.10;;
1380;SDS011;684;48.342;10.096;2023-07-02T03:01:10;6.83;;;3.70;;
1380;SDS011;684;48.342;10.096;2023-07-02T03:03:39;9.30;;;3.57;;
1380;SDS011;684;48.342;10.096;2023-07-02T03:06:10;7.53;;;3.93;;
1380;SDS011;684;48.342;10.096;2023-07-02T03:08:37;8.33;;;4.13;;
1380;SDS011;684;48.342;10.096;2023-07-02T03:11:05;9.70;;;3.50;;
1380;SDS011;684;48.342;10.096;2023-07-02T03:13:32;9.20;;;4.37;;
1380;SDS011;684;48.342;10.096;2023-07-02T03:15:58;11.13;;;4.30;;
1380;SDS011;684;48.342;10.096;2023-07-02T03:18:25;9.93;;;4.30;;
1380;SDS011;684;48.342;10.096;2023-07-02T03:20:53;7.70;;;4.17;;
1380;SDS011;684;48.342;10.096;2023-07-02T03:23:20;8.00;;;4.47;;
1380;SDS011;684;48.342;10.096;2023-07-02T03:25:47;10.60;;;4.20;;
1380;SDS011;684;48.342;10.096;2023-07-02T03:28:13;7.03;;;3.93;;
1380;SDS011;684;48.342;10.096;2023-07-02T03:30:40;7.57;;;4.60;;
1380;SDS011;684;48.342;10.096;2023-07-02T03:33:08;10.00;;;4.00;;
1380;SDS011;684;48.342;10.096;2023-07-02T03:35:34;7.73;;;4.40;;
1380;SDS011;684;48.342;10.096;2023-07-02T03:38:03;7.20;;;3.70;;
1380;SDS011;684;48.342;10.096;2023-07-02T03:40:30;7.07;;;4.33;;
1380;SDS011;684;48.342;10.096;2023-07-02T03:42:56;7.13;;;4.40;;
1380;SDS011;684;48.342;10.096;2023-07-02T03:45:23;7.50;;;4.13;;
1380;SDS011;684;48.342;10.096;2023-07-02T03:47:50;7.57;;;4.10;;
1380;SDS011;684;48.342;10.096;2023-07-02T03:50:17;7.03;;;4.40;;
1380;SDS011;684;48.342;10.096;2023-07-02T03:52:44;10.70;;;4.60;;
1380;SDS011;684;48.342;10.096;2023-07-02T03:55:12;7.37;;;4.17;;
1380;SDS011;684;48.342;10.096;2023-07-02T03:57:38;8.93;;;4.37;;
1380;SDS011;684;48.342;10.096;2023-07-02T04:00:06;7.57;;;4.67;;
1380;SDS011;684;48.342;10.096;2023-07-02T04:02:34;11.17;;;4.60;;
1380;SDS011;684;48.342;10.096;2023-07-02T04:05:01;10.43;;;6.10;;
1380;SDS011;684;48.342;10.096;2023-07-02T04:07:28;8.57;;;4.60;;
1380;SDS011;684;48.342;10.096;2023-07-02T04:09:55;7.30;;;4.57;;
1380;SDS011;684;48.342;10.096;2023-07-02T04:12:23;8.80;;;4.63;;
1380;SDS011;684;48.342;10.096;2023-07-02T04:14:50;9.00;;;4.50;;
1380;SDS011;684;48.342;10.096;2023-07-02T04:17:17;6.90;;;4.03;;
1380;SDS011;684;48.342;10.096;2023-07-02T04:19:43;8.80;;;4.57;;
1380;SDS011;684;48.342;10.096;2023-07-02T04:22:10;8.80;;;4.77;;
1380;SDS011;684;48.342;10.096;2023-07-02T04:24:37;8.93;;;4.47;;
1380;SDS011;684;48.342;10.096;2023-07-02T04:27:04;7.70;;;3.70;;
1380;SDS011;684;48.342;10.096;2023-07-02T04:29:32;9.40;;;4.77;;
1380;SDS011;684;48.342;10.096;2023-07-02T04:31:59;8.87;;;4.40;;
1380;SDS011;684;48.342;10.096;2023-07-02T04:34:26;7.30;;;4.50;;
1380;SDS011;684;48.342;10.096;2023-07-02T04:36:53;7.47;;;4.70;;
1380;SDS011;684;48.342;10.096;2023-07-02T04:39:19;8.80;;;5.03;;
1380;SDS011;684;48.342;10.096;2023-07-02T04:41:46;8.43;;;4.73;;
1380;SDS011;684;48.342;10.096;2023-07-02T04:44:17;9.30;;;4.70;;
1380;SDS011;684;48.342;10.096;2023-07-02T04:46:47;9.80;;;4.20;;
1380;SDS011;684;48.342;10.096;2023-07-02T04:49:13;9.00;;;4.73;;
1380;SDS011;684;48.342;10.096;2023-07-02T04:51:40;9.97;;;5.20;;
1380;SDS011;684;48.342;10.096;2023-07-02T04:54:07;8.00;;;4.93;;
1380;SDS011;684;48.342;10.096;2023-07-02T04:56:34;8.30;;;5.07;;
1380;SDS011;684;48.342;10.096;2023-07-02T04:59:00;7.30;;;4.50;;
1380;SDS011;684;48.342;10.096;2023-07-02T05:01:27;10.63;;;5.13;;
1380;SDS011;684;48.342;10.096;2023-07-02T05:03:55;10.90;;;6.10;;
1380;SDS011;684;48.342;10.096;2023-07-02T05:06:22;7.60;;;4.47;;
1380;SDS011;684;48.342;10.096;2023-07-02T05:08:49;11.73;;;5.00;;
1380;SDS011;684;48.342;10.096;2023-07-02T05:11:16;7.30;;;4.33;;
1380;SDS011;684;48.342;10.096;2023-07-02T05:13:43;8.80;;;4.30;;
1380;SDS011;684;48.342;10.096;2023-07-02T05:16:10;13.30;;;4.17;;
1380;SDS011;684;48.342;10.096;2023-07-02T05:18:36;7.30;;;4.13;;
1380;SDS011;684;48.342;10.096;2023-07-02T05:21:04;8.27;;;4.40;;
1380;SDS011;684;48.342;10.096;2023-07-02T05:23:31;7.50;;;4.13;;
1380;SDS011;684;48.342;10.096;2023-07-02T05:25:58;6.20;;;3.80;;
1380;SDS011;684;48.342;10.096;2023-07-02T05:28:24;7.67;;;3.63;;
1380;SDS011;684;48.342;10.096;2023-07-02T05:30:51;9.63;;;4.43;;
1380;SDS011;684;48.342;10.096;2023-07-02T05:33:18;8.97;;;4.10;;
1380;SDS011;684;48.342;10.096;2023-07-02T05:35:45;9.57;;;4.67;;
1380;SDS011;684;48.342;10.096;2023-07-02T05:38:13;10.30;;;3.90;;
1380;SDS011;684;48.342;10.096;2023-07-02T05:40:40;10.40;;;4.50;;
1380;SDS011;684;48.342;10.096;2023-07-02T05:43:07;9.00;;;4.13;;
1380;SDS011;684;48.342;10.096;2023-07-02T05:45:34;7.67;;;4.00;;
1380;SDS011;684;48.342;10.096;2023-07-02T05:48:00;7.10;;;3.80;;
1380;SDS011;684;48.342;10.096;2023-07-02T05:50:27;11.27;;;3.77;;
1380;SDS011;684;48.342;10.096;2023-07-02T05:52:54;10.40;;;4.60;;
1380;SDS011;684;48.342;10.096;2023-07-02T05:55:22;6.90;;;3.30;;
1380;SDS011;684;48.342;10.096;2023-07-02T05:57:48;10.40;;;3.93;;
1380;SDS011;684;48.342;10.096;2023-07-02T06:00:15;6.97;;;3.50;;
1380;SDS011;684;48.342;10.096;2023-07-02T06:02:42;6.73;;;3.33;;
1380;SDS011;684;48.342;10.096;2023-07-02T06:05:12;6.47;;;3.50;;
1380;SDS011;684;48.342;10.096;2023-07-02T06:07:39;8.03;;;3.20;;
1380;SDS011;684;48.342;10.096;2023-07-02T06:10:06;5.90;;;2.57;;
1380;SDS011;684;48.342;10.096;2023-07-02T06:12:35;5.40;;;2.50;;
1380;SDS011;684;48.342;10.096;2023-07-02T06:15:01;6.63;;;2.83;;
1380;SDS011;684;48.342;10.096;2023-07-02T06:17:28;5.40;;;2.23;;
1380;SDS011;684;48.342;10.096;2023-07-02T06:19:56;7.03;;;2.87;;
1380;SDS011;684;48.342;10.096;2023-07-02T06:22:22;6.27;;;3.10;;
1380;SDS011;684;48.342;10.096;2023-07-02T06:24:49;6.10;;;2.73;;
1380;SDS011;684;48.342;10.096;2023-07-02T06:27:16;6.07;;;2.50;;
1380;SDS011;684;48.342;10.096;2023-07-02T06:29:44;6.90;;;2.60;;
1380;SDS011;684;48.342;10.096;2023-07-02T06:32:10;5.10;;;2.10;;
1380;SDS011;684;48.342;10.096;2023-07-02T06:34:37;7.30;;;2.27;;
1380;SDS011;684;48.342;10.096;2023-07-02T06:37:04;7.20;;;2.50;;
1380;SDS011;684;48.342;10.096;2023-07-02T06:39:31;5.53;;;2.53;;
1380;SDS011;684;48.342;10.096;2023-07-02T06:41:57;6.67;;;2.23;;
1380;SDS011;684;48.342;10.096;2023-07-02T06:44:24;5.07;;;2.17;;
1380;SDS011;684;48.342;10.096;2023-07-02T06:46:52;5.77;;;1.90;;
1380;SDS011;684;48.342;10.096;2023-07-02T06:49:19;4.77;;;1.73;;
1380;SDS011;684;48.342;10.096;2023-07-02T06:51:46;4.80;;;2.23;;
1380;SDS011;684;48.342;10.096;2023-07-02T06:54:13;5.27;;;2.10;;
1380;SDS011;684;48.342;10.096;2023-07-02T06:56:40;4.90;;;2.00;;
1380;SDS011;684;48.342;10.096;2023-07-02T06:59:07;5.03;;;2.17;;
1380;SDS011;684;48.342;10.096;2023-07-02T07:01:33;5.73;;;2.50;;
1380;SDS011;684;48.342;10.096;2023-07-02T07:04:02;5.70;;;1.93;;
1380;SDS011;684;48.342;10.096;2023-07-02T07:06:29;5.40;;;2.07;;
1380;SDS011;684;48.342;10.096;2023-07-02T07:08:56;4.97;;;1.60;;
1380;SDS011;684;48.342;10.096;2023-07-02T07:11:23;4.60;;;2.00;;
1380;SDS011;684;48.342;10.096;2023-07-02T07:13:49;4.57;;;1.70;;
1380;SDS011;684;48.342;10.096;2023-07-02T07:16:16;4.67;;;2.00;;
1380;SDS011;684;48.342;10.096;2023-07-02T07:18:43;4.50;;;2.00;;
1380;SDS011;684;48.342;10.096;2023-07-02T07:21:11;4.70;;;1.87;;
1380;SDS011;684;48.342;10.096;2023-07-02T07:23:38;4.83;;;1.97;;
1380;SDS011;684;48.342;10.096;2023-07-02T07:26:05;4.50;;;1.73;;
1380;SDS011;684;48.342;10.096;2023-07-02T07:28:32;4.67;;;2.03;;
1380;SDS011;684;48.342;10.096;2023-07-02T07:30:59;4.90;;;1.93;;
1380;SDS011;684;48.342;10.096;2023-07-02T07:33:25;7.27;;;2.30;;
1380;SDS011;684;48.342;10.096;2023-07-02T07:35:52;4.97;;;2.03;;
1380;SDS011;684;48.342;10.096;2023-07-02T07:38:20;5.70;;;2.33;;
1380;SDS011;684;48.342;10.096;2023-07-02T07:40:47;5.20;;;2.70;;
1380;SDS011;684;48.342;10.096;2023-07-02T07:43:14;6.20;;;2.97;;
1380;SDS011;684;48.342;10.096;2023-07-02T07:45:40;6.00;;;2.50;;
1380;SDS011;684;48.342;10.096;2023-07-02T07:48:07;5.63;;;2.60;;
1380;SDS011;684;48.342;10.096;2023-07-02T07:50:34;6.80;;;3.13;;
1380;SDS011;684;48.342;10.096;2023-07-02T07:53:00;8.13;;;4.13;;
1380;SDS011;684;48.342;10.096;2023-07-02T07:55:29;8.40;;;4.40;;
1380;SDS011;684;48.342;10.096;2023-07-02T07:57:56;9.10;;;5.00;;
1380;SDS011;684;48.342;10.096;2023-07-02T08:00:23;9.13;;;4.80;;
1380;SDS011;684;48.342;10.096;2023-07-02T08:02:50;7.43;;;4.10;;
1380;SDS011;684;48.342;10.096;2023-07-02T08:05:20;10.87;;;4.63;;
1380;SDS011;684;48.342;10.096;2023-07-02T08:07:47;11.93;;;4.53;;
1380;SDS011;684;48.342;10.096;2023-07-02T08:10:14;8.70;;;4.70;;
1380;SDS011;684;48.342;10.096;2023-07-02T08:12:42;10.13;;;4.47;;
1380;SDS011;684;48.342;10.096;2023-07-02T08:15:08;9.13;;;4.80;;
1380;SDS011;684;48.342;10.096;2023-07-02T08:17:35;8.37;;;4.97;;
1380;SDS011;684;48.342;10.096;2023-07-02T08:20:02;8.40;;;4.33;;
1380;SDS011;684;48.342;10.096;2023-07-02T08:22:34;9.13;;;5.07;;
1380;SDS011;684;48.342;10.096;2023-07-02T08:25:00;9.07;;;4.97;;
1380;SDS011;684;48.342;10.096;2023-07-02T08:27:27;8.67;;;4.90;;
1380;SDS011;684;48.342;10.096;2023-07-02T08:29:55;8.03;;;4.70;;
1380;SDS011;684;48.342;10.096;2023-07-02T08:32:22;7.80;;;4.53;;
1380;SDS011;684;48.342;10.096;2023-07-02T08:34:49;12.50;;;5.30;;
1380;SDS011;684;48.342;10.096;2023-07-02T08:37:16;8.70;;;5.67;;
1380;SDS011;684;48.342;10.096;2023-07-02T08:39:43;11.87;;;6.50;;
1380;SDS011;684;48.342;10.096;2023-07-02T08:42:09;10.67;;;4.87;;
1380;SDS011;684;48.342;10.096;2023-07-02T08:44:36;9.10;;;5.10;;
1380;SDS011;684;48.342;10.096;2023-07-02T08:47:05;9.27;;;5.00;;
1380;SDS011;684;48.342;10.096;2023-07-02T08:49:32;11.83;;;5.77;;
1380;SDS011;684;48.342;10.096;2023-07-02T08:51:58;12.57;;;7.57;;
1380;SDS011;684;48.342;10.096;2023-07-02T08:54:25;10.87;;;7.23;;
1380;SDS011;684;48.342;10.096;2023-07-02T08:56:52;11.40;;;6.87;;
1380;SDS011;684;48.342;10.096;2023-07-02T08:59:19;10.83;;;7.07;;
1380;SDS011;684;48.342;10.096;2023-07-02T09:01:45;15.53;;;8.67;;
1380;SDS011;684;48.342;10.096;2023-07-02T09:04:18;11.23;;;7.30;;
1380;SDS011;684;48.342;10.096;2023-07-02T09:06:45;10.47;;;6.80;;
1380;SDS011;684;48.342;10.096;2023-07-02T09:09:12;11.67;;;6.87;;
1380;SDS011;684;48.342;10.096;2023-07-02T09:11:48;14.47;;;6.70;;
1380;SDS011;684;48.342;10.096;2023-07-02T09:14:25;11.50;;;7.60;;
1380;SDS011;684;48.342;10.096;2023-07-02T09:17:03;8.23;;;5.80;;
1380;SDS011;684;48.342;10.096;2023-07-02T09:19:32;10.57;;;6.73;;
1380;SDS011;684;48.342;10.096;2023-07-02T09:21:59;10.30;;;7.07;;
1380;SDS011;684;48.342;10.096;2023-07-02T09:24:27;12.20;;;7.10;;
1380;SDS011;684;48.342;10.096;2023-07-02T09:26:55;12.27;;;7.67;;
1380;SDS011;684;48.342;10.096;2023-07-02T09:29:24;10.53;;;7.20;;
1380;SDS011;684;48.342;10.096;2023-07-02T09:31:53;9.30;;;6.27;;
1380;SDS011;684;48.342;10.096;2023-07-02T09:34:25;11.00;;;7.50;;
1380;SDS011;684;48.342;10.096;2023-07-02T09:36:54;9.80;;;6.83;;
1380;SDS011;684;48.342;10.096;2023-07-02T09:39:25;11.40;;;8.10;;
1380;SDS011;684;48.342;10.096;2023-07-02T09:41:52;12.93;;;8.43;;
1380;SDS011;684;48.342;10.096;2023-07-02T09:44:20;12.93;;;9.00;;
1380;SDS011;684;48.342;10.096;2023-07-02T09:46:49;10.20;;;7.27;;
1380;SDS011;684;48.342;10.096;2023-07-02T09:49:22;13.50;;;8.80;;
1380;SDS011;684;48.342;10.096;2023-07-02T09:51:50;14.83;;;9.30;;
1380;SDS011;684;48.342;10.096;2023-07-02T09:54:19;11.57;;;8.37;;
1380;SDS011;684;48.342;10.096;2023-07-02T09:56:46;11.67;;;8.67;;
1380;SDS011;684;48.342;10.096;2023-07-02T09:59:13;12.30;;;8.57;;
1380;SDS011;684;48.342;10.096;2023-07-02T10:01:39;13.03;;;9.30;;
1380;SDS011;684;48.342;10.096;2023-07-02T10:04:10;15.50;;;8.90;;
1380;SDS011;684;48.342;10.096;2023-07-02T10:06:44;15.27;;;8.73;;
1380;SDS011;684;48.342;10.096;2023-07-02T10:09:12;14.30;;;7.97;;
1380;SDS011;684;48.342;10.096;2023-07-02T10:11:40;12.27;;;8.50;;
1380;SDS011;684;48.342;10.096;2023-07-02T10:14:07;16.67;;;10.57;;
1380;SDS011;684;48.342;10.096;2023-07-02T10:16:33;13.43;;;9.60;;
1380;SDS011;684;48.342;10.096;2023-07-02T10:19:09;12.90;;;8.97;;
1380;SDS011;684;48.342;10.096;2023-07-02T10:21:36;14.37;;;9.80;;
1380;SDS011;684;48.342;10.096;2023-07-02T10:24:11;14.33;;;9.93;;
1380;SDS011;684;48.342;10.096;2023-07-02T10:26:38;15.67;;;10.17;;
1380;SDS011;684;48.342;10.096;2023-07-02T10:29:07;15.50;;;9.50;;
1380;SDS011;684;48.342;10.096;2023-07-02T10:31:33;14.13;;;10.03;;
1380;SDS011;684;48.342;10.096;2023-07-02T10:34:00;14.87;;;10.20;;
1380;SDS011;684;48.342;10.096;2023-07-02T10:36:27;14.50;;;10.40;;
1380;SDS011;684;48.342;10.096;2023-07-02T10:38:53;14.20;;;9.77;;
1380;SDS011;684;48.342;10.096;2023-07-02T10:41:29;15.80;;;11.47;;
1380;SDS011;684;48.342;10.096;2023-07-02T10:44:04;13.87;;;10.40;;
1380;SDS011;684;48.342;10.096;2023-07-02T10:46:33;16.43;;;10.27;;
1380;SDS011;684;48.342;10.096;2023-07-02T10:49:00;17.17;;;10.30;;
1380;SDS011;684;48.342;10.096;2023-07-02T10:51:26;18.03;;;11.30;;
1380;SDS011;684;48.342;10.096;2023-07-02T10:53:57;14.73;;;9.83;;
1380;SDS011;684;48.342;10.096;2023-07-02T10:56:25;17.17;;;11.10;;
1380;SDS011;684;48.342;10.096;2023-07-02T10:58:52;17.87;;;11.33;;
1380;SDS011;684;48.342;10.096;2023-07-02T11:01:24;15.63;;;10.97;;
1380;SDS011;684;48.342;10.096;2023-07-02T11:03:55;16.17;;;10.80;;
1380;SDS011;684;48.342;10.096;2023-07-02T11:06:23;15.93;;;11.77;;
1380;SDS011;684;48.342;10.096;2023-07-02T11:08:50;16.60;;;12.50;;
1380;SDS011;684;48.342;10.096;2023-07-02T11:11:17;19.47;;;12.50;;
1380;SDS011;684;48.342;10.096;2023-07-02T11:13:44;16.10;;;10.80;;
1380;SDS011;684;48.342;10.096;2023-07-02T11:16:17;17.40;;;11.70;;
1380;SDS011;684;48.342;10.096;2023-07-02T11:18:51;19.27;;;12.80;;
1380;SDS011;684;48.342;10.096;2023-07-02T11:21:19;20.00;;;12.90;;
1380;SDS011;684;48.342;10.096;2023-07-02T11:23:46;20.07;;;13.70;;
1380;SDS011;684;48.342;10.096;2023-07-02T11:26:12;18.70;;;12.70;;
1380;SDS011;684;48.342;10.096;2023-07-02T11:28:47;19.60;;;13.40;;
1380;SDS011;684;48.342;10.096;2023-07-02T11:31:24;17.60;;;13.27;;
1380;SDS011;684;48.342;10.096;2023-07-02T11:33:53;18.60;;;13.93;;
1380;SDS011;684;48.342;10.096;2023-07-02T11:36:20;17.63;;;12.80;;
1380;SDS011;684;48.342;10.096;2023-07-02T11:38:48;20.70;;;14.43;;
1380;SDS011;684;48.342;10.096;2023-07-02T11:41:16;18.77;;;13.23;;
1380;SDS011;684;48.342;10.096;2023-07-02T11:43:43;19.67;;;14.70;;
1380;SDS011;684;48.342;10.096;2023-07-02T11:46:09;20.40;;;14.50;;
1380;SDS011;684;48.342;10.096;2023-07-02T11:48:36;22.60;;;16.80;;
1380;SDS011;684;48.342;10.096;2023-07-02T11:51:04;22.93;;;15.43;;
1380;SDS011;684;48.342;10.096;2023-07-02T11:53:31;20.23;;;14.63;;
1380;SDS011;684;48.342;10.096;2023-07-02T11:55:57;20.00;;;15.13;;
1380;SDS011;684;48.342;10.096;2023-07-02T11:58:24;22.43;;;16.07;;
1380;SDS011;684;48.342;10.096;2023-07-02T12:00:51;21.70;;;16.13;;
1380;SDS011;684;48.342;10.096;2023-07-02T12:03:18;20.50;;;15.77;;
1380;SDS011;684;48.342;10.096;2023-07-02T12:05:44;21.80;;;16.80;;
1380;SDS011;684;48.342;10.096;2023-07-02T12:08:13;22.00;;;16.63;;
1380;SDS011;684;48.342;10.096;2023-07-02T12:10:40;23.17;;;16.67;;
1380;SDS011;684;48.342;10.096;2023-07-02T12:13:06;23.67;;;17.47;;
1380;SDS011;684;48.342;10.096;2023-07-02T12:15:33;21.77;;;15.93;;
1380;SDS011;684;48.342;10.096;2023-07-02T12:18:00;22.80;;;17.43;;
1380;SDS011;684;48.342;10.096;2023-07-02T12:20:27;23.43;;;18.50;;
1380;SDS011;684;48.342;10.096;2023-07-02T12:22:53;26.07;;;19.50;;
1380;SDS011;684;48.342;10.096;2023-07-02T12:25:21;23.70;;;17.57;;
1380;SDS011;684;48.342;10.096;2023-07-02T12:27:48;23.90;;;19.30;;
1380;SDS011;684;48.342;10.096;2023-07-02T12:30:15;26.47;;;18.63;;
1380;SDS011;684;48.342;10.096;2023-07-02T12:32:42;23.90;;;18.63;;
1380;SDS011;684;48.342;10.096;2023-07-02T12:35:09;25.33;;;18.63;;
1380;SDS011;684;48.342;10.096;2023-07-02T12:37:42;24.50;;;19.67;;
1380;SDS011;684;48.342;10.096;2023-07-02T12:40:10;23.73;;;18.40;;
1380;SDS011;684;48.342;10.096;2023-07-02T12:42:38;24.23;;;18.20;;
1380;SDS011;684;48.342;10.096;2023-07-02T12:45:07;22.43;;;17.10;;
1380;SDS011;684;48.342;10.096;2023-07-02T12:47:34;21.97;;;17.30;;
1380;SDS011;684;48.342;10.096;2023-07-02T12:50:01;28.07;;;20.73;;
1380;SDS011;684;48.342;10.096;2023-07-02T12:52:28;23.47;;;18.17;;
1380;SDS011;684;48.342;10.096;2023-07-02T12:54:55;26.70;;;18.80;;
1380;SDS011;684;48.342;10.096;2023-07-02T12:57:22;26.47;;;19.17;;
1380;SDS011;684;48.342;10.096;2023-07-02T12:59:50;24.03;;;18.73;;
1380;SDS011;684;48.342;10.096;2023-07-02T13:02:16;25.10;;;20.13;;
1380;SDS011;684;48.342;10.096;2023-07-02T13:04:43;23.00;;;18.23;;
1380;SDS011;684;48.342;10.096;2023-07-02T13:07:10;25.70;;;18.23;;
1380;SDS011;684;48.342;10.096;2023-07-02T13:09:37;23.10;;;18.23;;
1380;SDS011;684;48.342;10.096;2023-07-02T13:12:04;23.87;;;17.43;;
1380;SDS011;684;48.342;10.096;2023-07-02T13:14:31;23.60;;;18.20;;
1380;SDS011;684;48.342;10.096;2023-07-02T13:17:01;23.40;;;18.13;;
1380;SDS011;684;48.342;10.096;2023-07-02T13:19:29;23.37;;;19.30;;
1380;SDS011;684;48.342;10.096;2023-07-02T13:21:56;22.30;;;19.37;;
1380;SDS011;684;48.342;10.096;2023-07-02T13:24:23;24.90;;;18.27;;
1380;SDS011;684;48.342;10.096;2023-07-02T13:26:50;25.43;;;19.20;;
1380;SDS011;684;48.342;10.096;2023-07-02T13:29:17;23.40;;;17.60;;
1380;SDS011;684;48.342;10.096;2023-07-02T13:31:44;25.60;;;18.47;;
1380;SDS011;684;48.342;10.096;2023-07-02T13:34:12;21.47;;;16.33;;
1380;SDS011;684;48.342;10.096;2023-07-02T13:36:38;25.23;;;16.10;;
1380;SDS011;684;48.342;10.096;2023-07-02T13:39:05;25.97;;;17.63;;
1380;SDS011;684;48.342;10.096;2023-07-02T13:41:32;20.17;;;16.53;;
1380;SDS011;684;48.342;10.096;2023-07-02T13:43:59;24.27;;;16.70;;
1380;SDS011;684;48.342;10.096;2023-07-02T13:46:25;20.30;;;15.43;;
1380;SDS011;684;48.342;10.096;2023-07-02T13:48:52;20.37;;;15.80;;
1380;SDS011;684;48.342;10.096;2023-07-02T13:51:20;23.70;;;18.07;;
1380;SDS011;684;48.342;10.096;2023-07-02T13:53:47;21.20;;;15.87;;
1380;SDS011;684;48.342;10.096;2023-07-02T13:56:14;22.80;;;14.73;;
1380;SDS011;684;48.342;10.096;2023-07-02T13:58:58;21.80;;;15.67;;
1380;SDS011;684;48.342;10.096;2023-07-02T14:01:28;21.60;;;15.00;;
1380;SDS011;684;48.342;10.096;2023-07-02T14:03:55;18.40;;;14.13;;
1380;SDS011;684;48.342;10.096;2023-07-02T14:06:21;16.33;;;12.63;;
1380;SDS011;684;48.342;10.096;2023-07-02T14:08:48;21.23;;;14.20;;
1380;SDS011;684;48.342;10.096;2023-07-02T14:11:15;19.40;;;15.07;;
1380;SDS011;684;48.342;10.096;2023-07-02T14:13:42;15.97;;;12.50;;
1380;SDS011;684;48.342;10.096;2023-07-02T14:16:10;19.90;;;13.40;;
1380;SDS011;684;48.342;10.096;2023-07-02T14:18:37;17.67;;;13.57;;
1380;SDS011;684;48.342;10.096;2023-07-02T14:21:03;16.43;;;12.80;;
1380;SDS011;684;48.342;10.096;2023-07-02T14:23:31;18.70;;;13.10;;
1380;SDS011;684;48.342;10.096;2023-07-02T14:25:58;16.83;;;11.93;;
1380;SDS011;684;48.342;10.096;2023-07-02T14:28:25;18.20;;;11.80;;
1380;SDS011;684;48.342;10.096;2023-07-02T14:30:57;19.93;;;14.70;;
1380;SDS011;684;48.342;10.096;2023-07-02T14:33:26;17.17;;;12.63;;
1380;SDS011;684;48.342;10.096;2023-07-02T14:35:54;17.97;;;13.00;;
1380;SDS011;684;48.342;10.096;2023-07-02T14:38:20;21.57;;;14.20;;
1380;SDS011;684;48.342;10.096;2023-07-02T14:40:47;18.97;;;12.50;;
1380;SDS011;684;48.342;10.096;2023-07-02T14:43:14;17.53;;;12.00;;
1380;SDS011;684;48.342;10.096;2023-07-02T14:45:43;16.17;;;12.50;;
1380;SDS011;684;48.342;10.096;2023-07-02T14:48:12;21.80;;;12.87;;
1380;SDS011;684;48.342;10.096;2023-07-02T14:50:43;19.53;;;14.00;;
1380;SDS011;684;48.342;10.096;2023-07-02T14:53:10;19.80;;;14.77;;
1380;SDS011;684;48.342;10.096;2023-07-02T14:55:37;21.03;;;16.47;;
1380;SDS011;684;48.342;10.096;2023-07-02T14:58:05;23.47;;;15.13;;
1380;SDS011;684;48.342;10.096;2023-07-02T15:00:32;22.60;;;17.50;;
1380;SDS011;684;48.342;10.096;2023-07-02T15:03:00;26.40;;;18.77;;
1380;SDS011;684;48.342;10.096;2023-07-02T15:05:27;23.67;;;17.47;;
1380;SDS011;684;48.342;10.096;2023-07-02T15:07:55;23.13;;;16.27;;